RLSO2: Arkansas River, Ralston, OK

Data processed at Thu Jan 04 2018 23:20


All information presented herein is the property of the government of the United States of America and may be revised or deleted at any time without prior notice.
Dissemination of this information without the expressed written consent of the Public Affairs Office, Tulsa District U.S. Army Corps of Engineers is strictly prohibited.
These data are gathered electronically and, as presented, have not undergone any form of quality control. These data are not guaranteed to be valid or correct.
Go to home page.
Go to station list.

Upstream stations:

Downstream station:
Previous Day
Next Day
Current Day
    
SHEF ID:       RLSO2     Arkansas River at Ralston, OK
STATION TYPE:  

               PRECIP     STAGE  RIV-FLOW  BAT-LOAD
                   in        ft       cfs      volt
              Ccp-Rev   Ccp-Rev   Ccp-Rev   Ccp-Rev
(US/Central)
01/02 00:00      0.00      3.87      1229     12.49
01/02 01:00      0.00      3.84      1183     12.49
01/02 02:00      0.00      3.84      1183     12.49
01/02 03:00      0.00      3.80      1123     12.41
01/02 04:00      0.00      3.78      1093     12.41
01/02 05:00      0.00      3.77      1079     12.41
01/02 06:00      0.00      3.77      1079     12.41
01/02 07:00      0.00      3.72      1006     12.41
01/02 08:00      0.00      3.75      1050     12.41
01/02 09:00      0.00      3.69       963     12.41
01/02 10:00      0.00      3.71       992     12.65
01/02 11:00      0.00      3.70       978     13.21
01/02 12:00      0.00      3.71       992     13.60
01/02 13:00      0.00      3.71       992     14.16
01/02 14:00      0.00      3.71       992     14.16
01/02 15:00      0.00      3.72      1006     14.00
01/02 16:00      0.00      3.71       992     14.00
01/02 17:00      0.00      3.73      1021     13.68
01/02 18:00      0.00      3.72      1006     13.29
01/02 19:00      0.00      3.71       992     12.97
01/02 20:00      0.00      3.73      1021     12.65
01/02 21:00      0.00      3.66       922     12.57
01/02 22:00      0.00      3.59       828     12.57
01/02 23:00      0.00      3.66       922     12.49